Time;durP1;ratioP1;P1;durP2;ratioP2;P2;SDS_P1;SDS_P2;PMS_P1;PMS_P2;Temp;Humidity;BMP_temperature;BMP_pressure;BME280_temperature;BME280_humidity;BME280_pressure;Samples;Min_cycle;Max_cycle;Signal;HPM_P1;HPM_P2
2023/01/03 00:00:07;;;;;;;7.95;4.35;;;;;;;;;;5031842;28;20480;-74
2023/01/03 00:02:32;;;;;;;13.15;5.32;;;;;;;;;;5018397;28;20042;-73
2023/01/03 00:04:58;;;;;;;16.70;4.35;;;;;;;;;;5026420;28;20389;-73
2023/01/03 00:07:35;;;;;;;16.85;5.65;;;;;;;;;;5020795;28;20378;-73
2023/01/03 00:10:08;;;;;;;10.65;4.55;;;;;;;;;;5023201;28;20038;-73
2023/01/03 00:12:34;;;;;;;13.55;5.07;;;;;;;;;;5030221;28;20041;-73
2023/01/03 00:15:00;;;;;;;13.77;4.68;;;;;;;;;;5027355;28;20045;-74
2023/01/03 00:17:26;;;;;;;11.50;4.60;;;;;;;;;;5026888;28;20034;-73
2023/01/03 00:19:52;;;;;;;9.10;4.55;;;;;;;;;;5024625;28;20068;-73
2023/01/03 00:22:17;;;;;;;9.88;4.47;;;;;;;;;;5023400;28;20037;-73
2023/01/03 00:24:44;;;;;;;8.40;4.38;;;;;;;;;;5027594;28;20083;-73
2023/01/03 00:27:10;;;;;;;8.25;4.93;;;;;;;;;;5023308;28;20033;-73
2023/01/03 00:29:35;;;;;;;9.00;4.93;;;;;;;;;;5019345;28;20100;-73
2023/01/03 00:32:01;;;;;;;17.85;5.00;;;;;;;;;;5045340;28;20036;-73
2023/01/03 00:34:27;;;;;;;14.88;4.93;;;;;;;;;;5027261;28;20029;-73
2023/01/03 00:36:52;;;;;;;12.77;4.43;;;;;;;;;;5031302;28;20045;-73
2023/01/03 00:39:18;;;;;;;14.18;5.00;;;;;;;;;;5026071;28;20030;-73
2023/01/03 00:41:43;;;;;;;10.88;4.90;;;;;;;;;;5027989;28;20383;-73
2023/01/03 00:44:09;;;;;;;11.73;4.38;;;;;;;;;;5024519;28;20092;-74
2023/01/03 00:46:34;;;;;;;8.40;4.43;;;;;;;;;;5018320;28;20025;-74
2023/01/03 00:49:00;;;;;;;12.18;4.53;;;;;;;;;;5023044;28;20049;-73
2023/01/03 00:51:27;;;;;;;14.40;5.15;;;;;;;;;;5024700;28;20040;-73
2023/01/03 00:53:55;;;;;;;10.48;4.82;;;;;;;;;;5016310;28;20492;-73
2023/01/03 00:56:23;;;;;;;11.13;5.32;;;;;;;;;;5028812;28;20061;-73
2023/01/03 00:58:49;;;;;;;13.82;4.60;;;;;;;;;;5016019;28;20124;-73
2023/01/03 01:01:20;;;;;;;12.77;5.05;;;;;;;;;;5026263;28;20440;-73
2023/01/03 01:03:50;;;;;;;11.43;5.15;;;;;;;;;;5020888;28;20466;-73
2023/01/03 01:06:22;;;;;;;12.27;4.68;;;;;;;;;;5021181;28;20087;-73
2023/01/03 01:08:48;;;;;;;12.80;4.22;;;;;;;;;;5039235;28;20025;-73
2023/01/03 01:11:14;;;;;;;8.35;4.03;;;;;;;;;;5016210;28;20066;-73
2023/01/03 01:13:41;;;;;;;10.75;4.53;;;;;;;;;;5026712;28;20099;-73
2023/01/03 01:16:13;;;;;;;11.23;4.50;;;;;;;;;;5019435;28;20057;-73
2023/01/03 01:18:40;;;;;;;7.70;4.13;;;;;;;;;;5022442;28;20386;-72
2023/01/03 01:21:15;;;;;;;9.18;4.75;;;;;;;;;;5030805;28;20088;-73
2023/01/03 01:23:41;;;;;;;12.85;4.68;;;;;;;;;;5017374;28;20125;-73
2023/01/03 01:26:10;;;;;;;14.05;5.00;;;;;;;;;;5026976;28;20038;-76
2023/01/03 01:28:36;;;;;;;15.18;4.68;;;;;;;;;;5024111;28;20090;-73
2023/01/03 01:31:03;;;;;;;9.70;4.32;;;;;;;;;;5050642;28;20029;-74
2023/01/03 01:33:31;;;;;;;15.90;5.72;;;;;;;;;;5026280;28;20037;-73
2023/01/03 01:35:56;;;;;;;12.77;5.60;;;;;;;;;;5027832;28;20076;-73
2023/01/03 01:38:22;;;;;;;18.25;7.07;;;;;;;;;;5024695;28;20468;-73
2023/01/03 01:40:47;;;;;;;30.83;6.55;;;;;;;;;;5031776;28;20036;-73
2023/01/03 01:46:20;;;;;;;11.23;5.72;;;;;;;;;;5013919;28;20390;-73
2023/01/03 01:48:54;;;;;;;13.77;7.28;;;;;;;;;;5040071;28;20033;-73
2023/01/03 01:51:20;;;;;;;15.80;6.60;;;;;;;;;;5062082;28;20038;-73
2023/01/03 01:53:45;;;;;;;16.80;6.95;;;;;;;;;;5026343;28;20278;-73
2023/01/03 01:56:18;;;;;;;16.27;6.70;;;;;;;;;;5025748;28;20082;-73
2023/01/03 01:58:45;;;;;;;11.70;5.28;;;;;;;;;;5044117;28;20044;-73
2023/01/03 02:01:13;;;;;;;14.48;5.10;;;;;;;;;;5018441;28;20052;-73
2023/01/03 02:03:40;;;;;;;17.15;5.40;;;;;;;;;;5014800;28;20055;-73
2023/01/03 02:06:09;;;;;;;19.13;6.70;;;;;;;;;;5018252;28;20041;-73
2023/01/03 02:08:34;;;;;;;15.30;6.22;;;;;;;;;;5022746;28;20041;-73
2023/01/03 02:11:23;;;;;;;10.63;5.43;;;;;;;;;;5022746;28;20048;-72
2023/01/03 02:13:59;;;;;;;12.75;5.25;;;;;;;;;;5017954;28;20425;-73
2023/01/03 02:16:33;;;;;;;17.00;5.15;;;;;;;;;;5020469;28;20478;-73
2023/01/03 02:19:36;;;;;;;14.43;6.65;;;;;;;;;;5026069;28;20046;-73
2023/01/03 02:22:25;;;;;;;11.85;5.03;;;;;;;;;;5009235;28;20371;-73
2023/01/03 02:25:00;;;;;;;11.98;4.53;;;;;;;;;;5013595;28;20042;-73
2023/01/03 02:27:40;;;;;;;14.73;5.05;;;;;;;;;;5027775;28;20040;-73
2023/01/03 02:30:50;;;;;;;9.43;4.72;;;;;;;;;;5020560;28;20041;-74
2023/01/03 02:33:31;;;;;;;8.98;4.75;;;;;;;;;;5018099;28;20042;-72
2023/01/03 02:36:23;;;;;;;16.30;5.78;;;;;;;;;;5027301;28;20167;-74
2023/01/03 02:38:53;;;;;;;12.23;5.57;;;;;;;;;;5018058;28;20033;-73
2023/01/03 02:41:43;;;;;;;9.77;4.75;;;;;;;;;;5023869;28;20045;-73
2023/01/03 02:44:27;;;;;;;11.98;4.63;;;;;;;;;;5022817;28;20049;-73
2023/01/03 02:47:04;;;;;;;12.30;4.43;;;;;;;;;;5032954;28;20042;-74
2023/01/03 02:49:35;;;;;;;10.80;5.03;;;;;;;;;;5016932;28;20053;-73
2023/01/03 02:52:03;;;;;;;11.25;4.85;;;;;;;;;;5026152;28;20037;-73
2023/01/03 02:54:33;;;;;;;11.02;4.32;;;;;;;;;;5024796;28;20037;-74
2023/01/03 02:57:08;;;;;;;8.93;4.70;;;;;;;;;;5022932;28;20033;-73
2023/01/03 02:59:41;;;;;;;10.18;4.40;;;;;;;;;;5049576;28;20423;-73
2023/01/03 03:02:08;;;;;;;11.52;4.18;;;;;;;;;;5019132;28;20493;-73
2023/01/03 03:04:35;;;;;;;19.15;6.93;;;;;;;;;;5024241;28;20041;-74
2023/01/03 03:07:05;;;;;;;18.80;7.47;;;;;;;;;;5042635;28;20033;-73
2023/01/03 03:09:31;;;;;;;25.38;10.75;;;;;;;;;;5032061;28;20025;-72
2023/01/03 03:14:45;;;;;;;39.38;11.60;;;;;;;;;;5026088;28;20116;-73
2023/01/03 03:17:18;;;;;;;32.47;13.10;;;;;;;;;;5020600;28;20489;-73
2023/01/03 03:25:44;;;;;;;19.38;7.88;;;;;;;;;;5023401;28;20055;-73
2023/01/03 03:31:24;;;;;;;26.58;9.20;;;;;;;;;;5030048;28;20072;-73
2023/01/03 03:33:50;;;;;;;20.60;9.30;;;;;;;;;;5016616;28;20073;-73
2023/01/03 03:36:29;;;;;;;23.08;8.95;;;;;;;;;;5025361;28;20115;-73
2023/01/03 03:38:56;;;;;;;26.48;8.93;;;;;;;;;;5022225;28;20427;-73
2023/01/03 03:47:46;;;;;;;18.98;7.22;;;;;;;;;;5021405;28;20508;-73
2023/01/03 03:50:14;;;;;;;16.73;7.30;;;;;;;;;;5018615;28;20053;-73
2023/01/03 03:52:44;;;;;;;15.52;7.53;;;;;;;;;;5022316;28;20045;-73
2023/01/03 03:55:14;;;;;;;14.43;7.18;;;;;;;;;;5025455;28;20213;-73
2023/01/03 03:57:47;;;;;;;15.32;6.30;;;;;;;;;;5027189;28;20493;-73
2023/01/03 04:00:17;;;;;;;21.88;7.68;;;;;;;;;;5019214;28;20453;-72
2023/01/03 04:02:45;;;;;;;24.02;7.03;;;;;;;;;;5017369;28;20041;-73
2023/01/03 04:05:14;;;;;;;17.25;6.65;;;;;;;;;;5027555;28;20038;-73
2023/01/03 04:07:40;;;;;;;21.85;6.85;;;;;;;;;;5018796;28;20045;-73
2023/01/03 04:10:07;;;;;;;10.52;5.07;;;;;;;;;;5026611;28;20049;-72
2023/01/03 04:12:32;;;;;;;17.38;6.45;;;;;;;;;;5019221;28;20041;-73
2023/01/03 04:14:58;;;;;;;14.93;7.15;;;;;;;;;;5018658;28;20099;-73
2023/01/03 04:17:23;;;;;;;13.20;5.88;;;;;;;;;;5026340;28;20065;-73
2023/01/03 04:19:48;;;;;;;15.00;6.15;;;;;;;;;;5030663;28;20540;-73
2023/01/03 04:22:14;;;;;;;10.60;5.18;;;;;;;;;;5022371;28;20080;-73
2023/01/03 04:24:39;;;;;;;13.35;6.05;;;;;;;;;;5025202;28;20052;-74
2023/01/03 04:27:04;;;;;;;15.13;5.43;;;;;;;;;;5024094;28;20049;-73
2023/01/03 04:29:30;;;;;;;13.10;5.85;;;;;;;;;;5034229;28;20041;-74
2023/01/03 04:31:55;;;;;;;12.65;5.95;;;;;;;;;;5023260;28;20485;-73
2023/01/03 04:34:21;;;;;;;15.88;6.20;;;;;;;;;;5018231;28;20060;-73
2023/01/03 04:36:46;;;;;;;13.00;6.13;;;;;;;;;;5020250;28;20140;-73
2023/01/03 04:39:11;;;;;;;14.45;5.88;;;;;;;;;;5024174;28;20040;-73
2023/01/03 04:41:37;;;;;;;12.23;5.60;;;;;;;;;;5025819;28;20057;-74
2023/01/03 04:44:03;;;;;;;16.25;5.88;;;;;;;;;;5017088;28;20029;-73
2023/01/03 04:46:34;;;;;;;11.73;5.28;;;;;;;;;;5027730;28;20036;-74
2023/01/03 04:49:00;;;;;;;10.27;5.75;;;;;;;;;;5026344;28;20413;-73
2023/01/03 04:51:26;;;;;;;18.80;5.50;;;;;;;;;;5026885;28;20038;-74
2023/01/03 04:53:51;;;;;;;9.43;5.05;;;;;;;;;;5055704;28;20038;-73
2023/01/03 04:56:17;;;;;;;14.20;6.30;;;;;;;;;;5030674;28;20037;-73
2023/01/03 04:58:42;;;;;;;11.02;5.50;;;;;;;;;;5021157;28;20044;-74
2023/01/03 05:01:08;;;;;;;10.90;5.18;;;;;;;;;;5024932;28;20033;-75
2023/01/03 05:03:34;;;;;;;13.82;5.70;;;;;;;;;;5019718;28;20061;-74
2023/01/03 05:06:00;;;;;;;12.80;5.38;;;;;;;;;;5016495;28;20044;-73
2023/01/03 05:08:26;;;;;;;8.82;4.78;;;;;;;;;;5022376;28;20045;-74
2023/01/03 05:10:52;;;;;;;10.75;5.13;;;;;;;;;;5022641;28;20126;-74
2023/01/03 05:13:18;;;;;;;13.23;5.80;;;;;;;;;;5023881;28;20038;-73
2023/01/03 05:15:43;;;;;;;20.23;5.75;;;;;;;;;;5022753;28;20044;-74
2023/01/03 05:18:08;;;;;;;12.77;5.65;;;;;;;;;;5022744;28;20029;-73
2023/01/03 05:26:12;;;;;;;7.88;4.35;;;;;;;;;;5020072;28;20103;-74
2023/01/03 05:28:38;;;;;;;13.82;4.35;;;;;;;;;;5039025;28;20378;-74
2023/01/03 05:31:03;;;;;;;15.45;5.10;;;;;;;;;;5023379;28;20069;-73
2023/01/03 05:33:29;;;;;;;15.32;5.93;;;;;;;;;;5016661;28;20076;-74
2023/01/03 05:35:54;;;;;;;16.83;5.85;;;;;;;;;;5027873;28;20043;-74
2023/01/03 05:38:20;;;;;;;21.73;5.55;;;;;;;;;;5024043;28;20087;-74
2023/01/03 05:40:45;;;;;;;20.20;6.30;;;;;;;;;;5025544;28;20022;-74
2023/01/03 05:43:11;;;;;;;15.02;5.85;;;;;;;;;;5026644;28;20052;-73
2023/01/03 05:45:37;;;;;;;21.55;6.03;;;;;;;;;;5018674;28;20046;-74
2023/01/03 05:48:03;;;;;;;17.40;5.90;;;;;;;;;;5025153;28;20120;-73
2023/01/03 05:50:29;;;;;;;20.80;6.07;;;;;;;;;;5025331;28;20458;-73
2023/01/03 05:52:54;;;;;;;19.45;5.38;;;;;;;;;;5022288;28;20161;-74
2023/01/03 05:55:19;;;;;;;21.70;6.07;;;;;;;;;;5017891;28;20041;-75
2023/01/03 05:57:46;;;;;;;145.75;10.88;;;;;;;;;;5017811;28;20072;-74
2023/01/03 06:00:12;;;;;;;16.05;5.68;;;;;;;;;;5023457;28;20045;-73
2023/01/03 06:02:38;;;;;;;9.13;5.07;;;;;;;;;;5027674;28;20035;-75
2023/01/03 06:05:04;;;;;;;11.07;4.78;;;;;;;;;;5029059;28;20037;-74
2023/01/03 06:07:31;;;;;;;19.27;4.80;;;;;;;;;;5024456;28;20093;-73
2023/01/03 06:09:57;;;;;;;19.98;5.05;;;;;;;;;;5021953;28;20436;-74
2023/01/03 06:12:25;;;;;;;14.27;4.95;;;;;;;;;;5021674;28;20034;-73
2023/01/03 06:14:51;;;;;;;17.40;5.22;;;;;;;;;;5028686;28;20054;-73
2023/01/03 06:20:00;;;;;;;21.92;5.32;;;;;;;;;;5021128;28;20114;-74
2023/01/03 06:22:25;;;;;;;35.13;7.00;;;;;;;;;;5021357;28;20041;-73
2023/01/03 06:24:51;;;;;;;16.48;4.78;;;;;;;;;;5020296;28;20041;-73
2023/01/03 06:27:16;;;;;;;13.70;4.38;;;;;;;;;;5017666;28;20034;-74
2023/01/03 06:29:41;;;;;;;24.05;5.40;;;;;;;;;;5027900;28;20492;-75
2023/01/03 06:32:07;;;;;;;31.75;7.68;;;;;;;;;;5022279;28;20037;-76
2023/01/03 06:34:33;;;;;;;21.52;4.55;;;;;;;;;;5016437;28;20096;-73
2023/01/03 06:36:58;;;;;;;15.48;4.22;;;;;;;;;;5015111;28;20469;-73
2023/01/03 06:39:24;;;;;;;16.48;4.93;;;;;;;;;;5029124;28;20045;-74
2023/01/03 06:41:49;;;;;;;20.10;3.05;;;;;;;;;;5025123;28;20033;-74
2023/01/03 06:44:14;;;;;;;21.40;2.40;;;;;;;;;;5018418;28;20041;-73
2023/01/03 06:54:56;;;;;;;10.80;1.98;;;;;;;;;;5024970;28;20092;-75
2023/01/03 06:57:21;;;;;;;10.50;1.38;;;;;;;;;;5013866;28;20046;-74
2023/01/03 06:59:47;;;;;;;16.20;2.42;;;;;;;;;;5020405;28;20032;-74
2023/01/03 07:02:12;;;;;;;16.58;2.40;;;;;;;;;;5019655;28;20057;-74
2023/01/03 07:04:37;;;;;;;14.68;1.95;;;;;;;;;;5017604;28;20406;-74
2023/01/03 07:07:03;;;;;;;16.17;2.35;;;;;;;;;;5016914;28;20060;-74
2023/01/03 07:09:28;;;;;;;18.67;2.05;;;;;;;;;;5011131;28;20061;-74
2023/01/03 07:11:54;;;;;;;16.08;1.98;;;;;;;;;;5017263;28;20076;-75
2023/01/03 07:14:19;;;;;;;9.88;2.00;;;;;;;;;;5008964;28;20046;-74
2023/01/03 07:16:45;;;;;;;13.73;1.80;;;;;;;;;;5019986;28;20025;-75
2023/01/03 07:19:16;;;;;;;11.43;2.15;;;;;;;;;;5020642;28;20486;-74
2023/01/03 07:21:42;;;;;;;11.23;1.75;;;;;;;;;;5011592;28;20496;-74
2023/01/03 07:24:10;;;;;;;10.65;1.95;;;;;;;;;;5015645;28;20038;-74
2023/01/03 07:26:36;;;;;;;8.02;1.80;;;;;;;;;;5016644;28;20121;-74
2023/01/03 07:29:04;;;;;;;14.88;2.50;;;;;;;;;;5015073;28;20106;-74
2023/01/03 07:31:31;;;;;;;14.60;2.22;;;;;;;;;;5014992;28;20056;-75
2023/01/03 07:33:56;;;;;;;18.45;1.95;;;;;;;;;;5028434;28;20477;-77
2023/01/03 07:36:22;;;;;;;10.93;1.48;;;;;;;;;;5020615;28;20080;-74
2023/01/03 07:38:47;;;;;;;17.15;2.00;;;;;;;;;;5022459;28;20029;-74
2023/01/03 07:41:14;;;;;;;14.88;2.20;;;;;;;;;;5028751;28;20041;-74
2023/01/03 07:43:42;;;;;;;11.02;1.70;;;;;;;;;;5022746;28;20037;-74
2023/01/03 07:46:16;;;;;;;7.95;2.00;;;;;;;;;;5025760;28;20063;-74
2023/01/03 07:48:42;;;;;;;14.55;2.17;;;;;;;;;;5016192;28;20509;-74
2023/01/03 07:51:09;;;;;;;13.18;2.05;;;;;;;;;;5015307;28;20405;-74
2023/01/03 07:53:35;;;;;;;6.90;1.58;;;;;;;;;;5014088;28;20539;-74
2023/01/03 07:56:04;;;;;;;15.00;1.50;;;;;;;;;;5016839;28;20053;-73
2023/01/03 07:58:31;;;;;;;10.07;2.15;;;;;;;;;;5042611;28;20037;-74
2023/01/03 08:01:08;;;;;;;5.30;1.77;;;;;;;;;;5022770;28;20042;-73
2023/01/03 08:03:33;;;;;;;23.75;2.45;;;;;;;;;;4998014;28;20037;-74
2023/01/03 08:06:07;;;;;;;13.60;1.98;;;;;;;;;;5023773;28;20532;-74
2023/01/03 08:08:32;;;;;;;15.38;2.50;;;;;;;;;;5016916;28;20030;-74
2023/01/03 08:13:42;;;;;;;;;;;;;;;;;;5050496;28;20179;-74
2023/01/03 08:16:10;;;;;;;10.07;2.33;;;;;;;;;;5029646;28;20023;-76
2023/01/03 08:18:36;;;;;;;12.23;1.90;;;;;;;;;;5014786;28;20033;-74
2023/01/03 08:21:01;;;;;;;5.13;2.33;;;;;;;;;;5015072;28;20060;-74
2023/01/03 08:23:28;;;;;;;8.07;2.15;;;;;;;;;;5014782;28;20123;-75
2023/01/03 08:26:05;;;;;;;12.63;2.22;;;;;;;;;;5022697;28;20045;-74
2023/01/03 08:28:31;;;;;;;13.95;2.47;;;;;;;;;;5044875;28;20079;-74
2023/01/03 08:30:57;;;;;;;7.07;2.20;;;;;;;;;;5024613;28;20044;-75
2023/01/03 08:33:23;;;;;;;7.78;2.55;;;;;;;;;;5022010;28;20582;-74
2023/01/03 08:35:55;;;;;;;10.20;3.00;;;;;;;;;;5021645;28;20049;-74
2023/01/03 08:38:24;;;;;;;15.07;3.10;;;;;;;;;;5022639;28;20077;-75
2023/01/03 08:40:50;;;;;;;9.52;2.25;;;;;;;;;;5024858;28;20041;-73
2023/01/03 08:43:16;;;;;;;7.13;2.08;;;;;;;;;;5025958;28;20066;-74
2023/01/03 08:45:41;;;;;;;10.63;1.98;;;;;;;;;;5022015;28;20029;-74
2023/01/03 08:48:08;;;;;;;15.82;2.47;;;;;;;;;;5022329;28;20037;-76
2023/01/03 08:50:35;;;;;;;17.38;2.20;;;;;;;;;;5023707;28;20116;-74
2023/01/03 08:53:01;;;;;;;13.63;2.50;;;;;;;;;;5019012;28;20037;-74
2023/01/03 08:55:26;;;;;;;13.35;2.15;;;;;;;;;;5024214;28;20042;-75
2023/01/03 08:57:51;;;;;;;12.25;1.98;;;;;;;;;;5017514;28;20052;-74
2023/01/03 09:00:17;;;;;;;12.60;1.95;;;;;;;;;;5024101;28;20030;-74
2023/01/03 09:02:43;;;;;;;10.73;1.70;;;;;;;;;;5019514;28;20480;-74
2023/01/03 09:05:09;;;;;;;15.23;2.17;;;;;;;;;;5017855;28;20121;-74
2023/01/03 09:07:34;;;;;;;10.77;1.67;;;;;;;;;;5017262;28;20103;-74
2023/01/03 09:09:59;;;;;;;15.25;1.90;;;;;;;;;;5027792;28;20477;-74
2023/01/03 09:12:26;;;;;;;13.38;1.85;;;;;;;;;;5021855;28;20046;-75
2023/01/03 09:14:51;;;;;;;10.50;1.67;;;;;;;;;;5018060;28;20072;-74
2023/01/03 09:17:17;;;;;;;12.48;2.03;;;;;;;;;;5021855;28;20037;-75
2023/01/03 09:19:42;;;;;;;16.35;1.90;;;;;;;;;;5014123;28;20065;-74
2023/01/03 09:22:08;;;;;;;15.57;1.98;;;;;;;;;;5021975;28;20037;-74
2023/01/03 09:24:33;;;;;;;14.20;2.55;;;;;;;;;;5021224;28;20037;-74
2023/01/03 09:26:59;;;;;;;7.88;1.73;;;;;;;;;;5022809;28;20069;-74
2023/01/03 09:29:24;;;;;;;13.30;1.80;;;;;;;;;;5026048;28;20120;-75
2023/01/03 09:31:49;;;;;;;13.65;1.83;;;;;;;;;;5019646;28;20060;-74
2023/01/03 09:34:15;;;;;;;7.70;1.50;;;;;;;;;;5011454;28;20038;-75
2023/01/03 09:36:40;;;;;;;13.93;1.55;;;;;;;;;;5027157;28;20068;-74
2023/01/03 09:39:06;;;;;;;9.27;1.42;;;;;;;;;;5024162;28;20041;-74
2023/01/03 09:41:31;;;;;;;10.20;2.22;;;;;;;;;;4997660;28;20037;-75
2023/01/03 09:44:06;;;;;;;8.45;1.40;;;;;;;;;;4956633;28;20045;-74
2023/01/03 09:46:32;;;;;;;9.23;1.55;;;;;;;;;;5041780;28;20076;-75
2023/01/03 09:48:58;;;;;;;8.07;1.35;;;;;;;;;;5022756;28;20052;-74
2023/01/03 10:06:27;;;;;;;7.88;1.42;;;;;;;;;;5009750;28;20409;-74
2023/01/03 10:09:23;;;;;;;3.90;1.63;;;;;;;;;;5005665;28;20397;-73
2023/01/03 10:12:14;;;;;;;3.90;1.00;;;;;;;;;;5011622;28;20044;-73
2023/01/03 10:14:49;;;;;;;8.52;1.60;;;;;;;;;;5020490;28;20553;-74
2023/01/03 10:17:17;;;;;;;12.55;3.63;;;;;;;;;;5023531;28;20096;-74
2023/01/03 10:20:01;;;;;;;4.03;1.27;;;;;;;;;;5022756;28;20064;-74
2023/01/03 10:22:28;;;;;;;9.20;1.95;;;;;;;;;;5016899;28;20034;-74
2023/01/03 10:24:59;;;;;;;9.73;2.15;;;;;;;;;;5029266;28;20046;-75
2023/01/03 10:27:26;;;;;;;8.13;2.38;;;;;;;;;;5016166;28;20033;-76
2023/01/03 10:29:59;;;;;;;7.90;1.90;;;;;;;;;;5018133;28;20053;-74
2023/01/03 10:32:42;;;;;;;4.90;1.70;;;;;;;;;;5014578;28;20029;-75
2023/01/03 10:35:31;;;;;;;8.88;1.83;;;;;;;;;;5004664;28;20061;-74
2023/01/03 10:37:58;;;;;;;10.65;1.80;;;;;;;;;;5006349;28;20099;-76
2023/01/03 10:40:35;;;;;;;6.28;1.45;;;;;;;;;;5002585;28;20056;-75
2023/01/03 10:43:16;;;;;;;7.35;1.48;;;;;;;;;;5018908;28;20033;-75
2023/01/03 10:45:57;;;;;;;8.55;2.03;;;;;;;;;;5010578;28;20129;-74
2023/01/03 10:48:23;;;;;;;6.43;2.85;;;;;;;;;;5010425;28;20048;-74
2023/01/03 10:50:49;;;;;;;7.82;1.38;;;;;;;;;;5019786;28;20133;-74
2023/01/03 10:53:18;;;;;;;9.38;2.33;;;;;;;;;;5025140;28;20432;-74
2023/01/03 10:55:52;;;;;;;2.60;1.20;;;;;;;;;;5021007;28;20038;-74
2023/01/03 10:58:24;;;;;;;;;;;;;;;;;;5014239;28;20038;-75
2023/01/03 11:00:52;;;;;;;3.95;0.60;;;;;;;;;;5013847;28;19921;-74
2023/01/03 11:03:19;;;;;;;8.10;0.85;;;;;;;;;;5011064;28;20045;-76
2023/01/03 11:06:06;;;;;;;2.83;1.05;;;;;;;;;;5021721;28;20041;-75
2023/01/03 11:08:45;;;;;;;4.63;1.20;;;;;;;;;;5018850;28;20117;-76
2023/01/03 11:11:39;;;;;;;4.30;1.50;;;;;;;;;;5016895;28;20046;-74
2023/01/03 11:14:08;;;;;;;6.43;1.70;;;;;;;;;;5026013;28;20095;-74
2023/01/03 11:16:33;;;;;;;3.60;1.17;;;;;;;;;;5013781;28;20125;-74
2023/01/03 11:19:01;;;;;;;5.63;1.02;;;;;;;;;;5019062;28;20521;-75
2023/01/03 11:21:50;;;;;;;5.95;1.33;;;;;;;;;;5022776;28;20049;-74
2023/01/03 11:24:27;;;;;;;6.22;1.58;;;;;;;;;;4999522;28;20041;-74
2023/01/03 11:27:02;;;;;;;5.13;1.20;;;;;;;;;;5006216;28;20041;-75
2023/01/03 11:29:33;;;;;;;3.25;1.10;;;;;;;;;;5026257;28;20045;-75
2023/01/03 11:32:27;;;;;;;5.60;1.88;;;;;;;;;;5024691;28;20037;-74
2023/01/03 11:35:24;;;;;;;3.78;1.50;;;;;;;;;;5019562;28;20080;-74
2023/01/03 11:38:00;;;;;;;8.70;1.33;;;;;;;;;;5014267;28;20050;-74
2023/01/03 11:40:51;;;;;;;4.13;1.10;;;;;;;;;;5025967;28;20053;-74
2023/01/03 11:43:31;;;;;;;6.18;1.33;;;;;;;;;;5026918;28;20478;-74
2023/01/03 11:46:18;;;;;;;4.18;0.90;;;;;;;;;;5029977;28;20041;-74
2023/01/03 11:49:02;;;;;;;6.82;1.08;;;;;;;;;;5007032;28;20064;-74
2023/01/03 11:51:57;;;;;;;6.85;0.90;;;;;;;;;;5013939;28;20048;-74
2023/01/03 11:54:26;;;;;;;3.88;1.38;;;;;;;;;;5020727;28;20104;-74
2023/01/03 11:56:51;;;;;;;7.03;1.80;;;;;;;;;;5014992;28;20054;-74
2023/01/03 11:59:38;;;;;;;6.40;1.80;;;;;;;;;;5016756;28;20990;-74
2023/01/03 12:02:57;;;;;;;5.95;1.67;;;;;;;;;;5020969;28;20195;-74
2023/01/03 12:06:03;;;;;;;10.20;2.90;;;;;;;;;;5011075;28;20453;-75
2023/01/03 12:08:44;;;;;;;15.15;3.22;;;;;;;;;;5012484;28;20053;-75
2023/01/03 12:11:23;;;;;;;9.05;2.60;;;;;;;;;;5015368;28;20060;-74
2023/01/03 12:14:13;;;;;;;7.10;3.15;;;;;;;;;;5022193;28;20075;-76
2023/01/03 12:16:43;;;;;;;10.77;2.47;;;;;;;;;;5023874;28;20385;-75
2023/01/03 12:19:57;;;;;;;13.10;2.35;;;;;;;;;;5015136;28;20034;-74
2023/01/03 12:22:46;;;;;;;8.77;2.10;;;;;;;;;;5006365;28;20041;-75
2023/01/03 12:25:19;;;;;;;6.07;1.38;;;;;;;;;;5012955;28;20080;-74
2023/01/03 12:27:53;;;;;;;6.22;1.45;;;;;;;;;;5023466;28;20032;-75
2023/01/03 12:30:39;;;;;;;10.25;1.52;;;;;;;;;;5013696;28;20386;-75
2023/01/03 12:33:11;;;;;;;11.55;2.25;;;;;;;;;;5006668;28;20053;-75
2023/01/03 12:35:42;;;;;;;6.10;2.17;;;;;;;;;;5016950;28;20050;-74
2023/01/03 12:38:08;;;;;;;8.93;1.80;;;;;;;;;;5016891;28;20034;-74
2023/01/03 12:40:57;;;;;;;12.27;1.60;;;;;;;;;;5021435;28;20056;-75
2023/01/03 12:43:32;;;;;;;11.50;1.95;;;;;;;;;;5015370;28;20042;-75
2023/01/03 12:46:03;;;;;;;7.30;1.75;;;;;;;;;;5027551;28;20038;-74
2023/01/03 12:48:29;;;;;;;13.55;2.45;;;;;;;;;;5018127;28;20087;-75
2023/01/03 12:50:54;;;;;;;7.10;2.10;;;;;;;;;;5019821;28;20516;-76
2023/01/03 12:53:29;;;;;;;12.95;1.30;;;;;;;;;;5018784;28;20056;-74
2023/01/03 12:56:15;;;;;;;11.65;1.90;;;;;;;;;;5029081;28;20045;-74
2023/01/03 12:58:55;;;;;;;13.65;1.90;;;;;;;;;;5025370;28;20481;-74
2023/01/03 13:01:28;;;;;;;9.65;2.10;;;;;;;;;;5023807;28;20494;-74
2023/01/03 13:04:17;;;;;;;11.05;2.38;;;;;;;;;;5016393;28;20045;-75
2023/01/03 13:07:12;;;;;;;6.15;1.17;;;;;;;;;;5012089;28;20548;-74
2023/01/03 13:09:40;;;;;;;8.55;2.00;;;;;;;;;;5022945;28;20504;-75
2023/01/03 13:12:20;;;;;;;13.00;2.30;;;;;;;;;;5017701;28;20124;-76
2023/01/03 13:14:54;;;;;;;15.07;2.33;;;;;;;;;;5013941;28;20565;-75
2023/01/03 13:17:21;;;;;;;17.40;2.03;;;;;;;;;;5017018;28;20042;-75
2023/01/03 13:19:57;;;;;;;17.65;2.33;;;;;;;;;;5014073;28;20471;-75
2023/01/03 13:22:48;;;;;;;20.27;3.05;;;;;;;;;;5013439;28;20041;-74
2023/01/03 13:25:38;;;;;;;11.15;1.90;;;;;;;;;;5018495;28;20810;-75
2023/01/03 13:28:23;;;;;;;16.67;2.85;;;;;;;;;;4931464;28;20152;-75
2023/01/03 13:30:49;;;;;;;27.63;2.97;;;;;;;;;;5022134;28;20057;-74
2023/01/03 13:33:17;;;;;;;16.38;2.30;;;;;;;;;;5002888;28;20060;-75
2023/01/03 13:35:42;;;;;;;19.67;3.35;;;;;;;;;;5012095;28;20107;-75
2023/01/03 13:38:18;;;;;;;19.05;2.58;;;;;;;;;;5010894;28;20124;-75
2023/01/03 13:40:45;;;;;;;22.70;2.40;;;;;;;;;;5012390;28;20401;-75
2023/01/03 13:43:16;;;;;;;19.80;3.53;;;;;;;;;;5004566;28;20037;-75
2023/01/03 13:45:41;;;;;;;16.17;3.03;;;;;;;;;;5007194;28;20061;-74
2023/01/03 13:48:16;;;;;;;21.65;3.47;;;;;;;;;;5013256;28;20466;-74
2023/01/03 13:51:13;;;;;;;16.92;3.83;;;;;;;;;;5007681;28;20060;-75
2023/01/03 13:53:52;;;;;;;12.00;1.95;;;;;;;;;;5008584;28;20049;-75
2023/01/03 13:56:28;;;;;;;14.50;2.22;;;;;;;;;;4999752;28;20037;-75
2023/01/03 13:59:13;;;;;;;20.38;3.90;;;;;;;;;;5013530;28;20120;-74
2023/01/03 14:01:47;;;;;;;18.05;3.60;;;;;;;;;;5017506;28;20431;-75
2023/01/03 14:04:43;;;;;;;27.17;3.63;;;;;;;;;;5017364;28;20065;-74
2023/01/03 14:07:39;;;;;;;20.77;4.30;;;;;;;;;;5017707;28;20389;-75
2023/01/03 14:10:32;;;;;;;20.70;2.65;;;;;;;;;;5013695;28;20037;-74
2023/01/03 14:13:22;;;;;;;23.65;4.05;;;;;;;;;;5005936;28;20121;-74
2023/01/03 14:15:48;;;;;;;17.92;2.30;;;;;;;;;;5017588;28;20036;-74
2023/01/03 14:18:13;;;;;;;19.02;3.38;;;;;;;;;;4996690;28;20444;-74
2023/01/03 14:20:43;;;;;;;22.83;4.18;;;;;;;;;;5011785;28;20045;-75
2023/01/03 14:23:11;;;;;;;17.40;2.55;;;;;;;;;;5009108;28;20061;-75
2023/01/03 14:25:41;;;;;;;27.10;4.35;;;;;;;;;;5015046;28;20025;-75
2023/01/03 14:28:24;;;;;;;22.13;3.30;;;;;;;;;;5021849;28;20041;-75
2023/01/03 14:31:07;;;;;;;25.10;3.70;;;;;;;;;;5036608;28;20116;-76
2023/01/03 14:33:40;;;;;;;27.83;3.50;;;;;;;;;;5015612;28;20112;-75
2023/01/03 14:36:16;;;;;;;20.33;2.70;;;;;;;;;;5018678;28;20535;-77
2023/01/03 14:38:48;;;;;;;25.92;2.58;;;;;;;;;;5021792;28;20029;-75
2023/01/03 14:41:32;;;;;;;21.85;3.53;;;;;;;;;;5015080;28;20519;-74
2023/01/03 14:44:08;;;;;;;15.73;2.97;;;;;;;;;;5014869;28;20065;-74
2023/01/03 14:46:35;;;;;;;14.23;2.15;;;;;;;;;;5023030;28;20038;-75
2023/01/03 14:49:02;;;;;;;19.92;2.55;;;;;;;;;;5030274;28;20128;-74
2023/01/03 14:51:33;;;;;;;14.05;2.22;;;;;;;;;;5030249;28;20505;-74
2023/01/03 14:53:59;;;;;;;15.13;2.63;;;;;;;;;;5017283;28;20034;-75
2023/01/03 14:56:25;;;;;;;9.50;2.28;;;;;;;;;;5020869;28;21667;-75
2023/01/03 14:58:52;;;;;;;24.45;3.22;;;;;;;;;;5023489;28;20041;-74
2023/01/03 15:01:17;;;;;;;8.70;1.92;;;;;;;;;;5014375;28;20041;-75
2023/01/03 15:03:45;;;;;;;10.90;1.90;;;;;;;;;;5011438;28;20053;-75
2023/01/03 15:06:18;;;;;;;18.30;2.30;;;;;;;;;;5017185;28;20493;-74
2023/01/03 15:08:44;;;;;;;8.10;1.75;;;;;;;;;;5024699;28;20556;-76
2023/01/03 15:11:12;;;;;;;18.73;1.80;;;;;;;;;;5018525;28;20045;-75
2023/01/03 15:13:46;;;;;;;10.40;2.22;;;;;;;;;;5018623;28;20443;-75
2023/01/03 15:16:25;;;;;;;12.35;2.10;;;;;;;;;;5027157;28;20041;-75
2023/01/03 15:19:06;;;;;;;9.98;1.35;;;;;;;;;;5019224;28;20083;-76
2023/01/03 15:21:31;;;;;;;10.10;2.00;;;;;;;;;;5017610;28;20504;-75
2023/01/03 15:23:57;;;;;;;14.60;3.08;;;;;;;;;;5010538;28;20116;-74
2023/01/03 15:26:25;;;;;;;15.80;1.83;;;;;;;;;;5018450;28;20065;-75
2023/01/03 15:29:17;;;;;;;11.63;1.83;;;;;;;;;;5017141;28;20053;-74
2023/01/03 15:31:56;;;;;;;8.15;1.73;;;;;;;;;;5008427;28;20091;-74
2023/01/03 15:34:25;;;;;;;11.90;2.17;;;;;;;;;;5021437;28;20069;-74
2023/01/03 15:36:54;;;;;;;16.77;2.50;;;;;;;;;;4967403;28;20042;-75
2023/01/03 15:39:22;;;;;;;10.15;1.77;;;;;;;;;;4989780;28;20058;-74
2023/01/03 15:44:33;;;;;;;4.03;1.20;;;;;;;;;;5036749;28;20597;-75
2023/01/03 15:47:01;;;;;;;5.10;1.60;;;;;;;;;;5010749;28;20068;-74
2023/01/03 15:49:27;;;;;;;8.73;1.50;;;;;;;;;;5009417;28;20049;-75
2023/01/03 15:51:53;;;;;;;13.30;2.33;;;;;;;;;;5008784;28;20034;-74
2023/01/03 15:54:19;;;;;;;4.72;1.33;;;;;;;;;;5010946;28;20444;-75